Time;durP1;ratioP1;P1;durP2;ratioP2;P2;SDS_P1;SDS_P2;PMS_P1;PMS_P2;Temp;Humidity;BMP_temperature;BMP_pressure;BME280_temperature;BME280_humidity;BME280_pressure;Samples;Min_cycle;Max_cycle;Signal;HPM_P1;HPM_P2
2023/05/26 00:01:10;;;;;;;16.83;5.28;;;14.90;99.90;;;;;;5019696;28;20652;-73
2023/05/26 00:03:36;;;;;;;18.23;5.65;;;14.70;99.90;;;;;;5012067;28;20287;-74
2023/05/26 00:06:01;;;;;;;14.65;6.07;;;14.70;99.90;;;;;;5019191;28;20267;-74
2023/05/26 00:08:27;;;;;;;23.65;6.47;;;14.70;99.90;;;;;;5018371;28;20699;-74
2023/05/26 00:10:53;;;;;;;20.88;6.88;;;14.70;99.90;;;;;;5013728;28;20220;-73
2023/05/26 00:13:18;;;;;;;15.77;5.97;;;14.70;99.90;;;;;;5020929;28;20216;-74
2023/05/26 00:15:44;;;;;;;16.38;5.50;;;14.60;99.90;;;;;;5017338;28;20236;-74
2023/05/26 00:18:10;;;;;;;18.08;5.78;;;14.60;99.90;;;;;;5020771;28;20181;-73
2023/05/26 00:20:36;;;;;;;16.03;6.13;;;14.60;99.90;;;;;;5018339;28;20307;-73
2023/05/26 00:23:02;;;;;;;16.27;6.70;;;14.50;99.90;;;;;;5016299;28;20297;-74
2023/05/26 00:25:27;;;;;;;15.60;5.70;;;14.60;99.90;;;;;;5018622;28;20204;-75
2023/05/26 00:27:53;;;;;;;21.37;6.10;;;14.60;99.90;;;;;;5017804;28;20691;-74
2023/05/26 00:30:19;;;;;;;17.77;5.23;;;14.50;99.90;;;;;;5019551;28;20207;-74
2023/05/26 00:32:44;;;;;;;22.63;6.43;;;14.50;99.90;;;;;;5018489;28;20187;-73
2023/05/26 00:35:10;;;;;;;17.80;6.10;;;14.50;99.90;;;;;;5017216;28;20243;-73
2023/05/26 00:37:36;;;;;;;19.57;6.20;;;14.40;99.90;;;;;;5016020;28;20278;-74
2023/05/26 00:40:01;;;;;;;19.13;5.63;;;14.50;99.90;;;;;;5021622;28;20247;-73
2023/05/26 00:42:27;;;;;;;18.57;6.03;;;14.40;99.90;;;;;;5016183;28;20220;-73
2023/05/26 00:44:53;;;;;;;20.47;6.17;;;14.30;99.90;;;;;;5022191;28;20216;-72
2023/05/26 00:47:18;;;;;;;15.87;5.70;;;14.30;99.90;;;;;;5023120;28;20292;-75
2023/05/26 00:49:45;;;;;;;16.70;6.40;;;14.30;99.90;;;;;;5021996;28;20208;-73
2023/05/26 00:52:11;;;;;;;19.23;5.83;;;14.40;99.90;;;;;;5017586;28;20231;-75
2023/05/26 00:54:42;;;;;;;14.37;6.00;;;14.40;99.90;;;;;;5021647;28;20208;-74
2023/05/26 00:57:08;;;;;;;16.57;6.07;;;14.30;99.90;;;;;;5022119;28;20283;-74
2023/05/26 00:59:34;;;;;;;15.70;6.13;;;14.30;99.90;;;;;;5023921;28;20201;-73
2023/05/26 01:02:00;;;;;;;18.97;6.33;;;14.20;99.90;;;;;;5020801;28;20220;-74
2023/05/26 01:04:27;;;;;;;21.13;6.63;;;14.20;99.90;;;;;;5019616;28;20350;-74
2023/05/26 01:06:55;;;;;;;17.97;6.00;;;14.10;99.90;;;;;;5020938;28;20213;-73
2023/05/26 01:09:22;;;;;;;21.97;5.93;;;14.10;99.90;;;;;;5024103;28;20746;-73
2023/05/26 01:11:56;;;;;;;21.33;6.20;;;14.10;99.90;;;;;;5037733;28;20173;-76
2023/05/26 01:14:40;;;;;;;15.70;5.53;;;14.20;99.90;;;;;;5022683;28;20207;-73
2023/05/26 01:17:32;;;;;;;22.10;6.20;;;14.10;99.90;;;;;;5021034;28;20215;-75
2023/05/26 01:20:18;;;;;;;21.33;6.87;;;14.00;99.90;;;;;;5002919;28;20224;-73
2023/05/26 01:22:59;;;;;;;23.97;6.67;;;13.90;99.90;;;;;;5020668;28;20644;-73
2023/05/26 01:25:48;;;;;;;18.07;6.63;;;14.00;99.90;;;;;;5019579;28;20334;-74
2023/05/26 01:28:18;;;;;;;19.90;6.20;;;13.90;99.90;;;;;;5008754;28;20209;-74
2023/05/26 01:30:44;;;;;;;18.63;6.03;;;13.90;99.90;;;;;;5037001;28;20222;-74
2023/05/26 01:33:10;;;;;;;18.40;6.10;;;13.80;99.90;;;;;;5020715;28;20185;-73
2023/05/26 01:35:36;;;;;;;19.00;6.63;;;13.80;99.90;;;;;;5023544;28;20211;-73
2023/05/26 01:38:03;;;;;;;18.00;5.90;;;13.80;99.90;;;;;;5021961;28;20251;-74
2023/05/26 01:40:30;;;;;;;20.53;5.93;;;13.80;99.90;;;;;;5023456;28;20218;-74
2023/05/26 01:43:02;;;;;;;26.33;6.10;;;13.80;99.90;;;;;;5020495;28;20247;-74
2023/05/26 01:45:54;;;;;;;19.10;6.50;;;13.80;99.90;;;;;;5022939;28;20600;-73
2023/05/26 01:48:20;;;;;;;19.67;6.33;;;13.80;99.90;;;;;;5020546;28;20173;-73
2023/05/26 01:50:55;;;;;;;17.73;6.27;;;13.70;99.90;;;;;;5019998;28;20169;-73
2023/05/26 01:53:24;;;;;;;18.67;6.80;;;13.60;99.90;;;;;;5019367;28;20204;-73
2023/05/26 01:55:52;;;;;;;19.73;6.00;;;13.60;99.90;;;;;;5022257;28;20216;-74
2023/05/26 01:58:19;;;;;;;19.30;6.17;;;13.60;99.90;;;;;;5018770;28;20208;-73
2023/05/26 02:00:46;;;;;;;12.07;5.27;;;13.70;99.90;;;;;;5022902;28;20666;-73
2023/05/26 02:03:13;;;;;;;26.30;6.77;;;13.70;99.90;;;;;;5019796;28;20543;-73
2023/05/26 02:05:39;;;;;;;18.97;6.07;;;13.70;99.90;;;;;;5020023;28;20172;-74
2023/05/26 02:08:05;;;;;;;18.63;6.30;;;13.70;99.90;;;;;;5020597;28;20209;-73
2023/05/26 02:10:30;;;;;;;15.87;5.90;;;13.70;99.90;;;;;;5021001;28;20205;-73
2023/05/26 02:12:56;;;;;;;26.77;7.47;;;13.70;99.90;;;;;;5019240;28;20579;-74
2023/05/26 02:15:21;;;;;;;21.43;6.43;;;13.60;99.90;;;;;;5022435;28;20185;-73
2023/05/26 02:17:54;;;;;;;17.57;6.37;;;13.60;99.90;;;;;;5016709;28;20491;-75
2023/05/26 02:20:20;;;;;;;18.07;6.00;;;13.60;99.90;;;;;;5007282;28;20381;-73
2023/05/26 02:22:46;;;;;;;20.33;6.70;;;13.60;99.90;;;;;;5011954;28;20740;-73
2023/05/26 02:25:11;;;;;;;17.17;6.40;;;13.50;99.90;;;;;;5019762;28;20581;-73
2023/05/26 02:27:37;;;;;;;18.83;6.20;;;13.50;99.90;;;;;;5018683;28;20586;-73
2023/05/26 02:30:03;;;;;;;23.70;7.10;;;13.50;99.90;;;;;;5018150;28;20423;-74
2023/05/26 02:32:29;;;;;;;17.53;6.33;;;13.40;99.90;;;;;;5020280;28;20254;-73
2023/05/26 02:34:56;;;;;;;18.80;5.57;;;13.50;99.90;;;;;;5034832;28;20216;-73
2023/05/26 02:37:22;;;;;;;23.50;6.33;;;13.40;99.90;;;;;;5015448;28;20697;-73
2023/05/26 02:39:48;;;;;;;22.47;6.30;;;13.40;99.90;;;;;;5013391;28;20215;-73
2023/05/26 02:42:13;;;;;;;23.47;6.60;;;13.40;99.90;;;;;;5010579;28;20192;-74
2023/05/26 02:44:39;;;;;;;17.13;6.07;;;13.40;99.90;;;;;;5016000;28;20179;-73
2023/05/26 02:47:05;;;;;;;18.73;6.93;;;13.30;99.90;;;;;;5010486;28;20680;-74
2023/05/26 02:49:31;;;;;;;18.37;6.03;;;13.40;99.90;;;;;;5011706;28;20260;-74
2023/05/26 02:51:56;;;;;;;20.90;6.13;;;13.30;99.90;;;;;;5013718;28;20221;-74
2023/05/26 02:54:22;;;;;;;17.07;6.07;;;13.30;99.90;;;;;;5017034;28;20173;-74
2023/05/26 02:56:47;;;;;;;21.33;6.60;;;13.30;99.90;;;;;;5015704;28;20205;-73
2023/05/26 02:59:13;;;;;;;19.13;6.13;;;13.30;99.90;;;;;;5016660;28;20205;-74
2023/05/26 03:01:39;;;;;;;16.33;6.33;;;13.20;99.90;;;;;;5010698;28;20952;-73
2023/05/26 03:04:05;;;;;;;23.57;6.60;;;13.20;99.90;;;;;;5016932;28;20610;-73
2023/05/26 03:06:32;;;;;;;20.23;6.87;;;13.20;99.90;;;;;;5019098;28;20209;-73
2023/05/26 03:08:58;;;;;;;20.57;6.90;;;13.20;99.90;;;;;;5017195;28;20208;-73
2023/05/26 03:11:23;;;;;;;15.47;5.77;;;13.20;99.90;;;;;;5019670;28;20227;-74
2023/05/26 03:13:49;;;;;;;21.23;6.53;;;13.20;99.90;;;;;;5018156;28;20296;-74
2023/05/26 03:16:14;;;;;;;32.27;8.10;;;13.20;99.90;;;;;;5013582;28;20601;-74
2023/05/26 03:18:40;;;;;;;22.87;6.90;;;13.30;99.90;;;;;;5016531;28;20216;-74
2023/05/26 03:21:06;;;;;;;18.00;6.63;;;13.30;99.90;;;;;;5023684;28;20253;-74
2023/05/26 03:23:33;;;;;;;19.60;6.43;;;13.30;99.90;;;;;;5013743;28;20192;-74
2023/05/26 03:26:00;;;;;;;24.43;6.77;;;13.30;99.90;;;;;;5009618;28;20213;-74
2023/05/26 03:28:26;;;;;;;22.43;6.30;;;13.40;99.90;;;;;;5015754;28;20215;-74
2023/05/26 03:30:52;;;;;;;16.00;6.20;;;13.40;99.90;;;;;;5013934;28;20212;-74
2023/05/26 03:33:18;;;;;;;13.67;6.43;;;13.50;99.90;;;;;;5014810;28;20602;-74
2023/05/26 03:35:44;;;;;;;20.30;6.53;;;13.60;99.90;;;;;;5016694;28;20180;-74
2023/05/26 03:38:10;;;;;;;18.97;6.10;;;13.50;99.90;;;;;;5013843;28;20304;-74
2023/05/26 03:40:36;;;;;;;20.57;6.60;;;13.70;99.90;;;;;;5016002;28;20302;-73
2023/05/26 03:43:01;;;;;;;22.50;6.40;;;13.90;99.90;;;;;;5011649;28;20319;-74
2023/05/26 03:45:27;;;;;;;18.75;5.57;;;14.10;99.90;;;;;;5019462;28;20212;-72
2023/05/26 03:47:53;;;;;;;15.35;5.95;;;14.20;99.90;;;;;;5015935;28;20583;-74
2023/05/26 03:50:19;;;;;;;25.02;6.13;;;14.60;99.90;;;;;;5020139;28;20203;-74
2023/05/26 03:52:45;;;;;;;16.85;6.13;;;14.90;99.90;;;;;;5015969;28;20736;-73
2023/05/26 03:55:11;;;;;;;11.50;5.53;;;15.10;99.90;;;;;;5010567;28;20209;-74
2023/05/26 03:57:37;;;;;;;21.15;6.30;;;15.50;99.90;;;;;;5013305;28;20425;-74
2023/05/26 04:00:05;;;;;;;20.23;6.22;;;15.40;99.90;;;;;;5012205;28;20205;-74
2023/05/26 04:02:31;;;;;;;17.45;5.72;;;15.70;99.90;;;;;;5014644;28;20215;-74
2023/05/26 04:04:57;;;;;;;14.70;5.55;;;15.90;99.90;;;;;;5009758;28;20223;-75
2023/05/26 04:07:22;;;;;;;16.40;5.75;;;16.10;99.90;;;;;;5012376;28;20713;-75
2023/05/26 04:09:48;;;;;;;19.38;6.22;;;16.20;99.90;;;;;;5013415;28;20216;-75
2023/05/26 04:12:13;;;;;;;14.02;5.30;;;16.40;99.90;;;;;;5013107;28;20173;-74
2023/05/26 04:14:39;;;;;;;18.48;5.80;;;16.50;99.90;;;;;;5016937;28;20183;-74
2023/05/26 04:17:05;;;;;;;15.52;5.10;;;16.30;99.90;;;;;;5013762;28;20263;-74
2023/05/26 04:19:30;;;;;;;19.15;5.97;;;16.80;99.90;;;;;;5015827;28;20216;-72
2023/05/26 04:21:57;;;;;;;18.67;5.60;;;17.20;99.90;;;;;;5015278;28;20211;-72
2023/05/26 04:24:23;;;;;;;15.98;5.53;;;17.60;99.90;;;;;;5023657;28;20183;-73
2023/05/26 04:26:49;;;;;;;17.27;5.13;;;17.80;99.90;;;;;;5018144;28;20651;-73
2023/05/26 04:29:15;;;;;;;15.38;5.20;;;18.00;99.90;;;;;;5024563;28;20212;-73
2023/05/26 04:31:42;;;;;;;14.82;5.25;;;18.30;99.90;;;;;;5020838;28;20228;-72
2023/05/26 04:34:08;;;;;;;19.52;5.15;;;18.40;99.90;;;;;;5009602;28;20216;-75
2023/05/26 04:36:38;;;;;;;14.00;5.60;;;18.10;99.90;;;;;;5019549;28;20217;-75
2023/05/26 04:39:04;;;;;;;15.45;5.97;;;18.40;99.90;;;;;;5021454;28;20575;-75
2023/05/26 04:41:29;;;;;;;14.25;5.70;;;18.40;99.90;;;;;;5024408;28;20221;-75
2023/05/26 04:43:55;;;;;;;17.40;5.13;;;18.60;99.90;;;;;;5022368;28;20212;-75
2023/05/26 04:46:21;;;;;;;14.27;5.70;;;18.50;99.90;;;;;;5023766;28;20204;-75
2023/05/26 04:48:47;;;;;;;16.10;5.20;;;18.70;99.90;;;;;;5023973;28;20212;-74
2023/05/26 04:51:12;;;;;;;15.85;4.60;;;18.80;99.90;;;;;;5038247;28;20197;-75
2023/05/26 04:53:38;;;;;;;16.80;5.68;;;18.90;99.90;;;;;;5021218;28;20656;-75
2023/05/26 04:56:05;;;;;;;14.68;5.57;;;18.90;99.90;;;;;;5023278;28;20216;-76
2023/05/26 04:58:32;;;;;;;17.02;4.95;;;19.10;99.90;;;;;;5024459;28;20331;-76
2023/05/26 05:00:58;;;;;;;17.17;5.80;;;19.50;99.90;;;;;;5020564;28;20710;-73
2023/05/26 05:03:24;;;;;;;16.77;5.63;;;19.90;99.90;;;;;;5024685;28;20689;-74
2023/05/26 05:05:50;;;;;;;21.13;5.68;;;20.10;99.90;;;;;;5020018;28;20177;-72
2023/05/26 05:08:16;;;;;;;15.57;5.25;;;20.10;99.90;;;;;;5024377;28;20205;-73
2023/05/26 05:10:41;;;;;;;18.70;6.05;;;20.50;99.90;;;;;;5021792;28;20211;-74
2023/05/26 05:13:07;;;;;;;18.15;5.93;;;20.20;99.90;;;;;;5021343;28;20224;-73
2023/05/26 05:15:32;;;;;;;15.85;6.07;;;20.20;99.90;;;;;;5023373;28;20771;-73
2023/05/26 05:17:58;;;;;;;15.07;5.53;;;20.60;99.90;;;;;;5023236;28;20223;-72
2023/05/26 05:20:27;;;;;;;16.58;5.25;;;20.80;99.90;;;;;;5021246;28;20217;-72
2023/05/26 05:22:53;;;;;;;21.65;5.60;;;20.80;99.90;;;;;;5021012;28;20227;-73
2023/05/26 05:25:18;;;;;;;15.10;5.15;;;20.90;99.90;;;;;;5022237;28;20217;-73
2023/05/26 05:27:44;;;;;;;16.58;5.03;;;21.00;99.90;;;;;;5024929;28;20262;-73
2023/05/26 05:30:11;;;;;;;16.35;5.43;;;21.60;99.90;;;;;;5021221;28;20220;-73
2023/05/26 05:32:37;;;;;;;13.77;5.13;;;22.10;99.90;;;;;;5022916;28;20192;-74
2023/05/26 05:35:03;;;;;;;19.80;6.20;;;22.30;99.90;;;;;;5013305;28;20442;-73
2023/05/26 05:37:29;;;;;;;18.02;5.70;;;21.80;99.90;;;;;;5024360;28;20246;-74
2023/05/26 05:39:54;;;;;;;15.45;5.22;;;21.80;99.90;;;;;;5019208;28;20833;-74
2023/05/26 05:42:21;;;;;;;17.55;5.25;;;22.00;99.90;;;;;;5024317;28;20233;-73
2023/05/26 05:44:47;;;;;;;12.82;5.15;;;22.90;99.90;;;;;;5019280;28;20205;-73
2023/05/26 05:47:13;;;;;;;18.48;5.40;;;22.30;99.90;;;;;;5021830;28;20283;-73
2023/05/26 05:49:38;;;;;;;13.88;5.13;;;23.00;99.90;;;;;;5020092;28;20763;-73
2023/05/26 05:52:04;;;;;;;18.10;5.35;;;23.60;99.90;;;;;;5020594;28;20617;-73
2023/05/26 05:54:30;;;;;;;18.45;6.07;;;23.90;99.90;;;;;;5021524;28;20239;-73
2023/05/26 05:56:56;;;;;;;14.23;4.68;;;24.00;99.90;;;;;;5021843;28;20208;-72
2023/05/26 05:59:21;;;;;;;17.50;5.85;;;23.90;99.90;;;;;;5021465;28;20255;-74
2023/05/26 06:01:47;;;;;;;22.60;6.85;;;24.20;99.90;;;;;;5023452;28;20207;-74
2023/05/26 06:04:12;;;;;;;14.75;5.68;;;24.10;99.90;;;;;;5019829;28;20225;-72
2023/05/26 06:06:38;;;;;;;13.05;5.18;;;24.30;99.90;;;;;;5019857;28;20208;-74
2023/05/26 06:09:03;;;;;;;20.70;5.53;;;24.80;99.90;;;;;;5020711;28;20632;-75
2023/05/26 06:11:29;;;;;;;13.90;5.00;;;24.90;99.90;;;;;;5021862;28;20199;-74
2023/05/26 06:13:55;;;;;;;12.85;5.22;;;24.70;99.90;;;;;;5020859;28;20684;-73
2023/05/26 06:16:20;;;;;;;15.15;5.13;;;25.60;99.90;;;;;;5022245;28;20727;-72
2023/05/26 06:18:46;;;;;;;15.20;5.68;;;26.20;99.90;;;;;;5022694;28;20711;-76
2023/05/26 06:21:11;;;;;;;15.07;5.03;;;25.90;99.90;;;;;;5022028;28;20192;-75
2023/05/26 06:23:37;;;;;;;14.85;5.60;;;26.00;99.90;;;;;;5020243;28;20178;-75
2023/05/26 06:26:03;;;;;;;15.85;5.57;;;25.40;99.90;;;;;;5022978;28;20287;-74
2023/05/26 06:28:28;;;;;;;14.13;5.13;;;25.40;99.90;;;;;;5017693;28;20205;-74
2023/05/26 06:30:54;;;;;;;15.48;5.78;;;25.50;99.90;;;;;;5021337;28;20219;-74
2023/05/26 06:33:20;;;;;;;18.67;5.80;;;26.40;99.90;;;;;;5015705;28;20231;-73
2023/05/26 06:35:45;;;;;;;15.70;5.28;;;26.60;99.90;;;;;;5014920;28;20258;-73
2023/05/26 06:38:11;;;;;;;16.00;5.40;;;26.20;99.90;;;;;;5019653;28;20221;-73
2023/05/26 06:40:36;;;;;;;19.60;5.43;;;26.50;99.90;;;;;;5018510;28;20255;-71
2023/05/26 06:43:02;;;;;;;15.43;5.63;;;27.10;99.90;;;;;;5013662;28;20229;-71
2023/05/26 06:45:28;;;;;;;17.77;5.38;;;26.00;99.90;;;;;;5021612;28;20239;-72
2023/05/26 06:47:53;;;;;;;15.05;5.25;;;26.90;99.90;;;;;;5020350;28;20226;-73
2023/05/26 06:50:19;;;;;;;15.65;5.30;;;27.10;99.90;;;;;;5017441;28;20213;-73
2023/05/26 06:52:45;;;;;;;14.88;5.38;;;27.20;99.20;;;;;;5020806;28;20263;-74
2023/05/26 06:55:10;;;;;;;14.27;4.90;;;27.20;99.20;;;;;;5020656;28;20220;-73
2023/05/26 06:57:36;;;;;;;17.73;5.70;;;27.40;98.30;;;;;;5021283;28;20232;-73
2023/05/26 07:00:02;;;;;;;13.63;5.40;;;27.30;98.00;;;;;;5015388;28;20216;-74
2023/05/26 07:02:28;;;;;;;14.93;5.65;;;27.40;98.00;;;;;;5013515;28;20209;-74
2023/05/26 07:04:54;;;;;;;16.77;5.38;;;27.70;97.90;;;;;;5016179;28;20207;-74
2023/05/26 07:07:19;;;;;;;19.90;5.75;;;27.50;97.30;;;;;;5019023;28;20690;-74
2023/05/26 07:09:45;;;;;;;16.98;5.82;;;27.20;97.10;;;;;;5021903;28;20219;-75
2023/05/26 07:12:11;;;;;;;19.33;5.18;;;27.50;96.10;;;;;;5019290;28;20244;-74
2023/05/26 07:14:37;;;;;;;12.57;4.85;;;28.20;95.30;;;;;;5018575;28;20680;-74
2023/05/26 07:17:03;;;;;;;13.95;5.45;;;28.50;95.10;;;;;;5020789;28;20307;-74
2023/05/26 07:19:28;;;;;;;14.90;4.88;;;28.60;94.30;;;;;;5017690;28;20225;-75
2023/05/26 07:21:54;;;;;;;12.85;5.22;;;28.80;93.20;;;;;;5021372;28;20655;-74
2023/05/26 07:24:20;;;;;;;13.68;5.20;;;28.90;92.90;;;;;;5016266;28;20188;-74
2023/05/26 07:26:45;;;;;;;15.40;5.07;;;28.40;93.40;;;;;;5018948;28;20320;-75
2023/05/26 07:29:11;;;;;;;13.25;4.85;;;28.10;93.30;;;;;;5020503;28;20213;-74
2023/05/26 07:31:36;;;;;;;14.40;5.60;;;28.50;92.60;;;;;;5022305;28;20212;-75
2023/05/26 07:34:02;;;;;;;10.55;4.60;;;27.70;92.60;;;;;;5017755;28;20241;-75
2023/05/26 07:36:28;;;;;;;13.52;4.97;;;28.00;92.90;;;;;;5016809;28;20297;-73
2023/05/26 07:38:53;;;;;;;14.10;5.45;;;28.10;92.50;;;;;;5018143;28;20827;-74
2023/05/26 07:41:21;;;;;;;15.20;5.13;;;28.10;92.10;;;;;;5021599;28;20299;-73
2023/05/26 07:43:46;;;;;;;15.02;4.85;;;27.70;92.10;;;;;;5017354;28;20220;-75
2023/05/26 07:46:12;;;;;;;15.90;5.10;;;28.40;91.60;;;;;;5018033;28;20262;-75
2023/05/26 07:48:37;;;;;;;13.45;5.63;;;28.10;90.60;;;;;;5020031;28;20303;-75
2023/05/26 07:51:03;;;;;;;14.57;5.13;;;28.20;91.00;;;;;;5017731;28;20203;-75
2023/05/26 07:53:29;;;;;;;15.50;5.43;;;28.60;90.90;;;;;;5017467;28;20197;-73
2023/05/26 07:55:54;;;;;;;12.80;5.72;;;28.10;90.70;;;;;;5019695;28;20216;-73
2023/05/26 07:58:20;;;;;;;16.67;5.03;;;27.50;90.50;;;;;;5016612;28;20694;-75
2023/05/26 08:00:45;;;;;;;15.30;5.03;;;28.20;90.60;;;;;;5014084;28;20259;-75
2023/05/26 08:03:11;;;;;;;14.55;5.35;;;28.30;90.70;;;;;;5016776;28;20216;-76
2023/05/26 08:05:37;;;;;;;18.25;5.57;;;28.50;90.50;;;;;;5014074;28;20758;-74
2023/05/26 08:08:02;;;;;;;16.52;6.10;;;27.70;90.80;;;;;;5006952;28;20302;-75
2023/05/26 08:10:28;;;;;;;16.58;5.47;;;27.60;91.10;;;;;;5011140;28;20599;-74
2023/05/26 08:12:53;;;;;;;12.68;5.00;;;26.80;91.90;;;;;;5016624;28;20208;-74
2023/05/26 08:15:24;;;;;;;15.63;5.28;;;26.20;92.30;;;;;;5017426;28;20177;-74
2023/05/26 08:17:50;;;;;;;16.92;5.68;;;26.60;92.80;;;;;;5017484;28;20220;-75
2023/05/26 08:20:16;;;;;;;14.43;5.43;;;26.70;92.60;;;;;;5012961;28;20711;-74
2023/05/26 08:22:41;;;;;;;15.65;5.43;;;25.00;93.00;;;;;;5011467;28;20675;-75
2023/05/26 08:25:07;;;;;;;14.02;5.45;;;25.90;93.50;;;;;;5009812;28;20300;-74
2023/05/26 08:27:33;;;;;;;18.33;7.05;;;26.10;92.90;;;;;;5004427;28;20208;-74
2023/05/26 08:29:59;;;;;;;17.13;5.22;;;25.70;93.00;;;;;;5010163;28;20193;-75
2023/05/26 08:32:24;;;;;;;17.77;6.35;;;25.00;93.50;;;;;;5008422;28;20220;-74
2023/05/26 08:34:50;;;;;;;14.15;5.88;;;24.00;95.40;;;;;;5011711;28;20208;-74
2023/05/26 08:37:17;;;;;;;18.25;5.38;;;24.10;95.40;;;;;;5013857;28;20776;-74
2023/05/26 08:39:43;;;;;;;13.80;5.07;;;24.60;94.70;;;;;;5012577;28;20595;-74
2023/05/26 08:42:14;;;;;;;15.13;5.03;;;24.50;95.00;;;;;;5017329;28;20184;-74
2023/05/26 08:44:42;;;;;;;14.18;5.20;;;24.80;95.10;;;;;;5013189;28;20173;-73
2023/05/26 08:47:11;;;;;;;22.50;5.80;;;24.70;95.10;;;;;;5012596;28;20228;-73
2023/05/26 08:49:43;;;;;;;15.50;5.57;;;24.20;95.40;;;;;;5013056;28;20205;-73
2023/05/26 08:52:11;;;;;;;13.30;4.45;;;24.00;95.30;;;;;;5014047;28;20205;-74
2023/05/26 08:54:37;;;;;;;15.23;5.75;;;23.50;95.00;;;;;;5011835;28;20204;-73
2023/05/26 08:57:04;;;;;;;13.35;5.07;;;22.90;96.50;;;;;;5014894;28;20652;-74
2023/05/26 08:59:31;;;;;;;11.95;4.60;;;23.20;96.10;;;;;;5009802;28;20207;-73
2023/05/26 09:01:58;;;;;;;13.70;4.68;;;22.20;96.50;;;;;;5016582;28;20209;-74
2023/05/26 09:04:25;;;;;;;13.57;4.50;;;22.80;97.00;;;;;;5016612;28;20212;-74
2023/05/26 09:06:51;;;;;;;14.18;4.55;;;22.40;96.90;;;;;;5020497;28;20207;-73
2023/05/26 09:09:18;;;;;;;12.13;4.70;;;21.90;97.30;;;;;;5034134;28;20226;-73
2023/05/26 09:11:46;;;;;;;15.50;5.30;;;22.70;97.40;;;;;;5025286;28;20660;-73
2023/05/26 09:14:16;;;;;;;12.63;4.72;;;23.00;97.10;;;;;;5019013;28;20585;-73
2023/05/26 09:16:42;;;;;;;13.18;4.72;;;23.00;96.90;;;;;;5023851;28;20259;-74
2023/05/26 09:19:14;;;;;;;15.02;4.95;;;23.20;96.30;;;;;;5022254;28;20224;-73
2023/05/26 09:21:51;;;;;;;15.13;5.30;;;23.10;93.60;;;;;;5023769;28;20264;-73
2023/05/26 09:24:19;;;;;;;10.90;4.47;;;23.00;94.70;;;;;;5018790;28;20185;-74
2023/05/26 09:26:46;;;;;;;13.77;3.80;;;23.50;94.00;;;;;;5022610;28;20172;-74
2023/05/26 09:29:13;;;;;;;12.68;4.22;;;23.10;93.60;;;;;;5020633;28;20731;-73
2023/05/26 09:31:46;;;;;;;11.25;4.72;;;23.10;93.10;;;;;;5023011;28;20208;-73
2023/05/26 09:34:14;;;;;;;12.15;4.63;;;23.10;94.30;;;;;;5002103;28;20297;-74
2023/05/26 09:36:41;;;;;;;14.57;4.35;;;23.20;93.30;;;;;;5036125;28;20220;-74
2023/05/26 09:39:09;;;;;;;27.40;6.68;;;23.30;94.40;;;;;;5020963;28;20688;-74
2023/05/26 09:41:38;;;;;;;13.60;4.95;;;23.50;95.30;;;;;;5020409;28;20418;-73
2023/05/26 09:44:22;;;;;;;14.73;4.53;;;23.20;95.20;;;;;;5023557;28;20226;-74
2023/05/26 09:46:52;;;;;;;18.33;5.03;;;22.00;96.60;;;;;;5021009;28;20286;-74
2023/05/26 09:49:19;;;;;;;14.70;4.50;;;22.00;97.70;;;;;;5021530;28;20299;-73
2023/05/26 09:51:48;;;;;;;14.30;4.43;;;22.70;97.50;;;;;;5018239;28;20197;-74
2023/05/26 09:54:14;;;;;;;14.48;5.35;;;22.30;97.20;;;;;;5021042;28;20184;-75
2023/05/26 09:56:59;;;;;;;11.73;4.40;;;22.40;96.40;;;;;;5023131;28;20732;-74
2023/05/26 09:59:38;;;;;;;12.00;4.75;;;21.50;97.50;;;;;;5018370;28;20649;-73
2023/05/26 10:02:33;;;;;;;10.93;4.43;;;21.70;97.10;;;;;;5022257;28;20207;-73
2023/05/26 10:05:00;;;;;;;12.98;3.58;;;22.20;95.30;;;;;;5028119;28;20262;-73
2023/05/26 10:07:27;;;;;;;12.45;3.92;;;21.40;94.60;;;;;;5020818;28;20239;-75
2023/05/26 10:09:58;;;;;;;9.25;3.63;;;21.70;95.30;;;;;;5017383;28;20333;-73
2023/05/26 10:12:30;;;;;;;13.00;3.80;;;21.90;94.60;;;;;;5015043;28;20550;-74
2023/05/26 10:14:56;;;;;;;12.93;4.20;;;22.00;94.00;;;;;;5021251;28;20733;-74
2023/05/26 10:17:23;;;;;;;12.50;4.15;;;22.30;93.00;;;;;;5019566;28;20261;-73
2023/05/26 10:19:49;;;;;;;14.30;6.40;;;22.50;93.20;;;;;;5018409;28;20708;-73
2023/05/26 10:22:24;;;;;;;11.52;3.78;;;22.80;93.90;;;;;;5016804;28;20255;-74
2023/05/26 10:25:09;;;;;;;9.43;3.90;;;22.90;93.40;;;;;;5021689;28;20247;-74
2023/05/26 10:28:11;;;;;;;9.70;3.50;;;22.80;92.50;;;;;;4999600;28;20232;-73
2023/05/26 10:30:40;;;;;;;9.75;3.83;;;23.10;92.30;;;;;;5015449;28;20216;-74
2023/05/26 10:33:14;;;;;;;10.57;3.85;;;23.10;91.40;;;;;;5010797;28;20181;-70
2023/05/26 10:36:00;;;;;;;13.02;4.40;;;23.10;92.40;;;;;;5021836;28;20612;-75
2023/05/26 10:38:29;;;;;;;13.90;3.83;;;23.30;92.80;;;;;;5014790;28;20262;-74
2023/05/26 10:40:55;;;;;;;10.65;4.18;;;23.20;92.40;;;;;;5023747;28;20698;-72
2023/05/26 10:43:26;;;;;;;13.43;4.45;;;23.10;93.00;;;;;;5019180;28;20304;-74
2023/05/26 10:46:00;;;;;;;14.43;4.20;;;23.20;92.40;;;;;;5022719;28;20604;-76
2023/05/26 10:48:40;;;;;;;13.63;4.50;;;22.90;92.90;;;;;;5018299;28;20216;-75
2023/05/26 10:51:23;;;;;;;12.55;3.67;;;22.70;93.20;;;;;;5020648;28;20235;-72
2023/05/26 10:53:49;;;;;;;16.23;7.47;;;22.40;92.00;;;;;;5011750;28;20200;-75
2023/05/26 10:56:18;;;;;;;11.15;4.03;;;21.90;91.30;;;;;;5019830;28;20589;-73
2023/05/26 10:59:36;;;;;;;12.88;4.88;;;22.30;92.80;;;;;;5046407;28;20537;-70
2023/05/26 11:02:07;;;;;;;12.05;5.03;;;22.70;92.20;;;;;;5026692;28;20262;-73
2023/05/26 11:04:43;;;;;;;9.95;3.70;;;22.80;91.60;;;;;;5024064;28;20805;-72
2023/05/26 11:07:16;;;;;;;13.05;3.95;;;22.60;91.10;;;;;;5022384;28;20207;-71
2023/05/26 11:10:08;;;;;;;10.95;3.90;;;22.00;91.50;;;;;;5026926;28;20200;-73
2023/05/26 11:12:48;;;;;;;11.45;5.15;;;22.10;92.10;;;;;;5022426;28;20223;-73
2023/05/26 11:15:33;;;;;;;21.30;9.85;;;22.00;91.80;;;;;;5021550;28;20172;-72
2023/05/26 11:18:09;;;;;;;12.40;4.75;;;22.40;92.10;;;;;;5024126;28;20200;-73
2023/05/26 11:20:35;;;;;;;12.48;4.50;;;22.40;92.50;;;;;;5022073;28;20212;-72
2023/05/26 11:23:02;;;;;;;13.35;5.07;;;22.40;92.60;;;;;;5019543;28;20208;-73
2023/05/26 11:25:28;;;;;;;13.30;5.63;;;21.90;92.70;;;;;;5022463;28;20298;-70
2023/05/26 11:27:54;;;;;;;14.23;4.03;;;21.90;92.70;;;;;;5022947;28;20247;-72
2023/05/26 11:30:20;;;;;;;11.75;4.18;;;21.20;94.00;;;;;;5023043;28;20252;-74
2023/05/26 11:32:48;;;;;;;13.95;4.28;;;21.40;94.50;;;;;;5019390;28;20184;-72
2023/05/26 11:35:27;;;;;;;15.57;4.68;;;21.50;94.70;;;;;;5025208;28;20262;-71
2023/05/26 11:37:54;;;;;;;11.75;4.10;;;21.60;94.00;;;;;;5025277;28;20215;-73
2023/05/26 11:40:20;;;;;;;12.23;3.72;;;21.90;93.00;;;;;;5026110;28;20209;-73
2023/05/26 11:42:51;;;;;;;15.23;4.70;;;21.90;93.50;;;;;;5025625;28;20215;-72
2023/05/26 11:45:17;;;;;;;10.13;3.97;;;21.40;93.80;;;;;;5023095;28;20262;-72
2023/05/26 11:47:43;;;;;;;11.68;4.03;;;21.70;94.10;;;;;;5025906;28;20208;-72
2023/05/26 11:50:10;;;;;;;8.93;4.00;;;21.40;94.60;;;;;;5021634;28;20209;-73
2023/05/26 11:52:42;;;;;;;11.38;4.28;;;21.90;94.80;;;;;;5025153;28;20209;-74
2023/05/26 11:55:13;;;;;;;13.07;3.78;;;22.10;95.10;;;;;;5025962;28;20582;-73
2023/05/26 11:57:40;;;;;;;11.68;4.47;;;22.10;94.10;;;;;;5019015;28;20326;-72
2023/05/26 12:00:11;;;;;;;13.00;4.03;;;21.80;94.00;;;;;;5024589;28;20219;-74
2023/05/26 12:02:37;;;;;;;15.10;4.15;;;21.40;95.00;;;;;;5026478;28;20758;-71
2023/05/26 12:05:23;;;;;;;14.23;4.20;;;21.30;95.60;;;;;;5024854;28;20303;-73
2023/05/26 12:08:06;;;;;;;9.13;3.80;;;21.60;95.20;;;;;;5024842;28;20209;-73
2023/05/26 12:10:32;;;;;;;11.95;3.65;;;21.90;94.40;;;;;;5013038;28;20243;-74
2023/05/26 12:12:58;;;;;;;11.45;3.92;;;21.50;94.60;;;;;;5009909;28;20570;-73
2023/05/26 12:15:25;;;;;;;9.02;3.72;;;21.50;94.90;;;;;;5012202;28;20541;-72
2023/05/26 12:17:52;;;;;;;13.45;4.15;;;21.40;95.30;;;;;;5012937;28;20196;-71
2023/05/26 12:20:18;;;;;;;9.32;3.63;;;21.10;94.80;;;;;;5004746;28;20205;-71
2023/05/26 12:22:44;;;;;;;10.35;4.13;;;21.30;95.10;;;;;;5005030;28;20284;-72
2023/05/26 12:25:10;;;;;;;10.07;3.42;;;21.40;95.00;;;;;;5011504;28;20205;-74
2023/05/26 12:27:39;;;;;;;10.93;3.88;;;21.00;94.60;;;;;;5009984;28;20586;-73
2023/05/26 12:30:33;;;;;;;12.88;3.70;;;21.10;94.90;;;;;;5010346;28;20248;-73
2023/05/26 12:32:58;;;;;;;10.60;3.95;;;21.20;94.40;;;;;;5009038;28;20677;-68
2023/05/26 12:35:24;;;;;;;13.85;4.38;;;20.90;93.40;;;;;;5009417;28;20240;-71
2023/05/26 12:37:50;;;;;;;12.90;3.60;;;21.00;93.90;;;;;;5039324;28;20219;-68
2023/05/26 12:40:15;;;;;;;10.95;3.65;;;21.10;94.10;;;;;;5007640;28;20280;-67
2023/05/26 12:42:41;;;;;;;10.48;4.07;;;21.00;93.90;;;;;;5000156;28;20209;-68